createdAt,value
2018-08-09T00:00:13.841Z,8.63
2018-08-09T00:02:26.102Z,16.73
2018-08-09T00:04:38.262Z,11.20
2018-08-09T00:06:50.569Z,9.13
2018-08-09T00:09:03.354Z,10.17
2018-08-09T00:11:15.619Z,10.73
2018-08-09T00:13:27.828Z,10.63
2018-08-09T00:15:40.077Z,9.63
2018-08-09T00:17:52.272Z,11.00
2018-08-09T00:20:04.878Z,10.73
2018-08-09T00:22:17.053Z,7.40
2018-08-09T00:24:29.254Z,10.73
2018-08-09T00:26:41.432Z,11.90
2018-08-09T00:28:53.609Z,12.83
2018-08-09T00:31:05.917Z,13.87
2018-08-09T00:33:18.114Z,10.70
2018-08-09T00:35:30.310Z,11.67
2018-08-09T00:37:42.489Z,13.07
2018-08-09T00:39:54.736Z,9.63
2018-08-09T00:42:06.933Z,11.37
2018-08-09T00:44:19.198Z,10.37
2018-08-09T00:46:31.467Z,15.87
2018-08-09T00:48:43.654Z,12.83
2018-08-09T00:50:55.862Z,12.10
2018-08-09T00:53:08.026Z,12.50
2018-08-09T00:55:20.229Z,14.20
2018-08-09T00:57:32.463Z,12.03
2018-08-09T00:59:44.642Z,11.97
2018-08-09T01:01:56.838Z,11.53
2018-08-09T01:04:09.002Z,9.37
2018-08-09T01:06:21.219Z,13.57
2018-08-09T01:08:33.389Z,11.07
2018-08-09T01:10:45.546Z,11.53
2018-08-09T01:12:57.751Z,12.70
2018-08-09T01:15:10.019Z,11.50
2018-08-09T01:17:22.243Z,9.53
2018-08-09T01:19:34.446Z,13.50
2018-08-09T01:21:46.652Z,11.13
2018-08-09T01:23:59.286Z,12.43
2018-08-09T01:26:11.467Z,13.20
2018-08-09T01:28:23.748Z,14.40
2018-08-09T01:30:35.966Z,12.53
2018-08-09T01:32:48.150Z,13.90
2018-08-09T01:35:00.347Z,9.77
2018-08-09T01:37:12.563Z,10.70
2018-08-09T01:39:24.811Z,12.23
2018-08-09T01:41:37.074Z,12.60
2018-08-09T01:43:58.978Z,13.50
2018-08-09T01:46:11.223Z,12.90
2018-08-09T01:48:23.382Z,9.37
2018-08-09T01:50:35.575Z,10.93
2018-08-09T01:52:47.733Z,11.70
2018-08-09T01:55:00.298Z,12.97
2018-08-09T01:57:12.498Z,11.93
2018-08-09T01:59:24.668Z,13.73
2018-08-09T02:01:36.827Z,12.80
2018-08-09T02:03:49.086Z,16.37
2018-08-09T02:06:01.276Z,14.20
2018-08-09T02:08:13.513Z,14.47
2018-08-09T02:10:25.738Z,11.03
2018-08-09T02:12:37.913Z,15.80
2018-08-09T02:14:50.125Z,12.47
2018-08-09T02:17:02.323Z,13.23
2018-08-09T02:19:14.510Z,12.67
2018-08-09T02:21:26.734Z,14.90
2018-08-09T02:23:38.890Z,12.87
2018-08-09T02:25:51.091Z,12.87
2018-08-09T02:28:03.293Z,14.53
2018-08-09T02:30:15.482Z,11.53
2018-08-09T02:32:27.661Z,11.27
2018-08-09T02:34:39.871Z,13.73
2018-08-09T02:36:52.050Z,12.60
2018-08-09T02:39:06.326Z,17.73
2018-08-09T02:41:18.509Z,15.17
2018-08-09T02:43:30.687Z,11.30
2018-08-09T02:45:42.868Z,15.97
2018-08-09T02:47:55.059Z,13.00
2018-08-09T02:50:07.246Z,14.13
2018-08-09T02:52:19.439Z,18.53
2018-08-09T02:54:31.596Z,14.43
2018-08-09T02:56:43.789Z,11.50
2018-08-09T02:58:56.076Z,10.57
2018-08-09T03:01:08.289Z,11.90
2018-08-09T03:03:20.519Z,9.30
2018-08-09T03:05:33.526Z,12.70
2018-08-09T03:07:45.729Z,19.13
2018-08-09T03:09:57.878Z,12.63
2018-08-09T03:12:10.121Z,12.40
2018-08-09T03:14:22.286Z,15.33
2018-08-09T03:16:34.497Z,14.60
2018-08-09T03:18:46.710Z,11.23
2018-08-09T03:20:58.889Z,14.30
2018-08-09T03:23:11.085Z,13.23
2018-08-09T03:25:23.384Z,14.93
2018-08-09T03:27:35.594Z,14.47
2018-08-09T03:29:47.761Z,15.33
2018-08-09T03:31:59.945Z,13.37
2018-08-09T03:34:12.123Z,12.10
2018-08-09T03:36:24.279Z,11.53
2018-08-09T03:38:36.442Z,12.60
2018-08-09T03:40:48.635Z,12.53
2018-08-09T03:43:00.827Z,14.90
2018-08-09T03:45:13.023Z,15.53
2018-08-09T03:47:25.235Z,12.27
2018-08-09T03:49:37.438Z,12.00
2018-08-09T03:51:49.627Z,9.90
2018-08-09T03:54:01.787Z,15.93
2018-08-09T03:56:14.010Z,14.00
2018-08-09T03:58:26.204Z,10.97
2018-08-09T04:00:38.396Z,10.47
2018-08-09T04:02:50.630Z,13.43
2018-08-09T04:05:03.235Z,11.17
2018-08-09T04:07:15.454Z,12.07
2018-08-09T04:09:27.613Z,14.20
2018-08-09T04:11:40.321Z,13.73
2018-08-09T04:13:52.465Z,12.40
2018-08-09T04:16:04.978Z,12.70
2018-08-09T04:18:17.145Z,12.50
2018-08-09T04:20:29.331Z,12.93
2018-08-09T04:22:41.970Z,15.17
2018-08-09T04:24:54.130Z,13.83
2018-08-09T04:27:06.322Z,13.17
2018-08-09T04:29:18.538Z,12.70
2018-08-09T04:31:30.710Z,12.43
2018-08-09T04:33:42.907Z,13.03
2018-08-09T04:35:55.085Z,16.43
2018-08-09T04:38:07.307Z,14.87
2018-08-09T04:40:19.492Z,13.27
2018-08-09T04:42:31.669Z,13.73
2018-08-09T04:44:43.868Z,12.67
2018-08-09T04:46:56.246Z,15.37
2018-08-09T04:49:08.504Z,12.07
2018-08-09T04:51:20.650Z,14.33
2018-08-09T04:53:32.806Z,13.43
2018-08-09T04:55:45.021Z,14.13
2018-08-09T04:57:57.241Z,13.47
2018-08-09T05:00:09.490Z,14.10
2018-08-09T05:02:21.746Z,11.73
2018-08-09T05:04:33.950Z,10.20
2018-08-09T05:06:46.231Z,13.67
2018-08-09T05:08:58.401Z,12.17
2018-08-09T05:11:10.623Z,10.93
2018-08-09T05:13:22.823Z,12.20
2018-08-09T05:15:35.030Z,12.23
2018-08-09T05:17:47.202Z,14.13
2018-08-09T05:19:59.528Z,11.43
2018-08-09T05:22:11.762Z,12.80
2018-08-09T05:24:23.953Z,9.17
2018-08-09T05:26:36.128Z,10.87
2018-08-09T05:28:48.318Z,12.90
2018-08-09T05:31:00.510Z,17.07
2018-08-09T05:33:12.703Z,9.67
2018-08-09T05:35:24.857Z,15.23
2018-08-09T05:37:37.365Z,11.37
2018-08-09T05:39:49.583Z,12.13
2018-08-09T05:42:01.796Z,13.50
2018-08-09T05:44:14.005Z,8.10
2018-08-09T05:46:26.174Z,10.03
2018-08-09T05:48:38.365Z,12.07
2018-08-09T05:50:50.530Z,14.13
2018-08-09T05:53:02.755Z,10.43
2018-08-09T05:55:14.938Z,8.63
2018-08-09T05:57:27.122Z,15.67
2018-08-09T05:59:39.366Z,12.20
2018-08-09T06:01:51.641Z,7.60
2018-08-09T06:04:03.927Z,12.10
2018-08-09T06:06:16.149Z,10.53
2018-08-09T06:08:28.341Z,16.47
2018-08-09T06:10:40.555Z,14.47
2018-08-09T06:12:52.785Z,15.93
2018-08-09T06:15:05.025Z,14.43
2018-08-09T06:17:17.267Z,14.53
2018-08-09T06:19:29.462Z,18.10
2018-08-09T06:21:41.708Z,17.27
2018-08-09T06:23:53.878Z,18.97
2018-08-09T06:26:06.093Z,15.77
2018-08-09T06:28:18.400Z,19.10
2018-08-09T06:30:30.638Z,14.53
2018-08-09T06:32:42.879Z,11.87
2018-08-09T06:34:55.077Z,13.10
2018-08-09T06:37:07.314Z,16.73
2018-08-09T06:39:19.542Z,12.20
2018-08-09T06:41:31.705Z,11.13
2018-08-09T06:43:43.884Z,11.33
2018-08-09T06:45:56.054Z,12.80
2018-08-09T06:48:08.382Z,13.40
2018-08-09T06:50:20.565Z,12.80
2018-08-09T06:52:32.731Z,11.10
2018-08-09T06:54:44.927Z,13.37
2018-08-09T06:56:57.386Z,13.83
2018-08-09T06:59:09.582Z,11.13
2018-08-09T07:01:21.778Z,12.47
2018-08-09T07:03:33.952Z,11.17
2018-08-09T07:05:46.157Z,11.17
2018-08-09T07:07:58.339Z,12.23
2018-08-09T07:10:10.582Z,10.60
2018-08-09T07:12:22.778Z,11.93
2018-08-09T07:14:34.961Z,13.53
2018-08-09T07:16:47.206Z,11.47
2018-08-09T07:18:59.425Z,13.37
2018-08-09T07:21:11.614Z,12.47
2018-08-09T07:23:23.822Z,14.57
2018-08-09T07:25:36.038Z,13.53
2018-08-09T07:27:48.311Z,13.53
2018-08-09T07:30:00.481Z,13.10
2018-08-09T07:32:12.667Z,13.08
2018-08-09T07:34:24.842Z,13.97
2018-08-09T07:36:37.064Z,11.83
2018-08-09T07:38:49.290Z,11.83
2018-08-09T07:41:01.777Z,12.07
2018-08-09T07:43:14.027Z,13.18
2018-08-09T07:45:26.194Z,16.30
2018-08-09T07:47:38.428Z,11.65
2018-08-09T07:49:50.882Z,11.83
2018-08-09T07:52:03.370Z,11.53
2018-08-09T07:54:15.625Z,11.63
2018-08-09T07:56:27.843Z,9.93
2018-08-09T07:58:40.130Z,11.00
2018-08-09T08:00:52.312Z,15.48
2018-08-09T08:03:04.581Z,13.60
2018-08-09T08:05:16.774Z,14.83
2018-08-09T08:07:28.990Z,11.18
2018-08-09T08:09:41.199Z,10.80
2018-08-09T08:11:53.386Z,10.68
2018-08-09T08:14:05.653Z,12.68
2018-08-09T08:16:17.923Z,12.75
2018-08-09T08:18:30.179Z,13.95
2018-08-09T08:20:42.400Z,13.13
2018-08-09T08:22:54.613Z,12.05
2018-08-09T08:25:07.174Z,11.80
2018-08-09T08:27:19.389Z,9.48
2018-08-09T08:29:31.652Z,11.90
2018-08-09T08:31:43.950Z,10.85
2018-08-09T08:33:56.175Z,12.50
2018-08-09T08:36:08.485Z,14.03
2018-08-09T08:38:20.678Z,10.80
2018-08-09T08:40:32.903Z,15.00
2018-08-09T08:42:45.123Z,10.63
2018-08-09T08:44:57.320Z,11.63
2018-08-09T08:47:09.626Z,10.50
2018-08-09T08:49:21.838Z,12.85
2018-08-09T08:51:34.030Z,11.35
2018-08-09T08:53:46.670Z,10.40
2018-08-09T08:55:58.906Z,12.23
2018-08-09T08:58:11.148Z,12.85
2018-08-09T09:00:23.379Z,12.60
2018-08-09T09:02:35.756Z,9.03
2018-08-09T09:04:48.012Z,7.85
2018-08-09T09:07:00.289Z,11.95
2018-08-09T09:09:13.267Z,8.83
2018-08-09T09:11:25.459Z,15.45
2018-08-09T09:13:37.657Z,12.70
2018-08-09T09:15:49.902Z,10.63
2018-08-09T09:18:02.159Z,11.88
2018-08-09T09:20:15.610Z,10.80
2018-08-09T09:22:27.807Z,9.73
2018-08-09T09:24:40.055Z,9.63
2018-08-09T09:26:52.254Z,7.95
2018-08-09T09:29:04.459Z,10.15
2018-08-09T09:31:16.677Z,8.95
2018-08-09T09:33:28.909Z,10.58
2018-08-09T09:35:41.150Z,9.48
2018-08-09T09:37:53.373Z,9.90
2018-08-09T09:40:06.349Z,8.68
2018-08-09T09:42:18.609Z,10.15
2018-08-09T09:44:30.826Z,9.93
2018-08-09T09:46:43.054Z,8.43
2018-08-09T09:48:55.309Z,8.90
2018-08-09T09:51:07.565Z,9.45
2018-08-09T09:53:19.782Z,8.85
2018-08-09T09:55:32.006Z,9.53
2018-08-09T09:57:44.221Z,8.88
2018-08-09T09:59:56.420Z,10.45
2018-08-09T10:02:08.675Z,9.33
2018-08-09T10:04:20.885Z,10.53
2018-08-09T10:06:33.830Z,9.05
2018-08-09T10:08:46.042Z,10.03
2018-08-09T10:10:58.255Z,9.28
2018-08-09T10:13:10.527Z,6.97
2018-08-09T10:15:22.745Z,10.28
2018-08-09T10:17:35.420Z,8.88
2018-08-09T10:19:47.679Z,6.95
2018-08-09T10:21:59.907Z,9.38
2018-08-09T10:24:12.113Z,7.17
2018-08-09T10:26:24.326Z,9.03
2018-08-09T10:28:36.547Z,9.33
2018-08-09T10:30:48.763Z,7.60
2018-08-09T10:33:01.038Z,8.53
2018-08-09T10:35:13.244Z,10.43
2018-08-09T10:37:25.485Z,7.85
2018-08-09T10:39:37.703Z,7.87
2018-08-09T10:41:49.915Z,9.48
2018-08-09T10:44:02.210Z,7.05
2018-08-09T10:46:14.427Z,9.45
2018-08-09T10:48:26.699Z,8.88
2018-08-09T10:50:38.934Z,7.15
2018-08-09T10:52:51.109Z,7.95
2018-08-09T10:55:03.582Z,10.30
2018-08-09T10:57:15.766Z,7.20
2018-08-09T10:59:27.907Z,8.03
2018-08-09T11:01:40.160Z,7.30
2018-08-09T11:03:52.904Z,7.72
2018-08-09T11:06:05.254Z,9.43
2018-08-09T11:08:17.450Z,8.73
2018-08-09T11:10:29.690Z,11.03
2018-08-09T11:12:41.888Z,8.15
2018-08-09T11:14:54.094Z,8.40
2018-08-09T11:17:06.346Z,7.72
2018-08-09T11:19:18.589Z,9.83
2018-08-09T11:21:30.843Z,8.65
2018-08-09T11:23:43.055Z,9.03
2018-08-09T11:25:55.610Z,7.97
2018-08-09T11:28:07.854Z,7.35
2018-08-09T11:30:20.092Z,8.30
2018-08-09T11:32:32.291Z,8.50
2018-08-09T11:34:44.495Z,7.10
2018-08-09T11:36:56.834Z,9.33
2018-08-09T11:39:10.773Z,9.68
2018-08-09T11:41:22.949Z,7.15
2018-08-09T11:43:35.138Z,8.83
2018-08-09T11:45:47.366Z,11.97
2018-08-09T11:47:59.634Z,7.97
2018-08-09T11:50:11.891Z,10.50
2018-08-09T11:52:24.242Z,7.22
2018-08-09T11:54:36.554Z,7.33
2018-08-09T11:56:48.821Z,6.62
2018-08-09T11:59:01.002Z,8.85
2018-08-09T12:01:13.233Z,9.00
2018-08-09T12:03:25.797Z,9.43
2018-08-09T12:05:38.020Z,10.20
2018-08-09T12:07:50.193Z,10.03
2018-08-09T12:10:02.454Z,10.38
2018-08-09T12:12:14.698Z,10.50
2018-08-09T12:14:26.950Z,7.80
2018-08-09T12:16:39.138Z,8.25
2018-08-09T12:18:51.335Z,7.75
2018-08-09T12:21:03.594Z,9.08
2018-08-09T12:23:15.918Z,9.43
2018-08-09T12:25:28.211Z,11.03
2018-08-09T12:27:40.455Z,7.00
2018-08-09T12:29:52.661Z,7.08
2018-08-09T12:32:05.476Z,7.75
2018-08-09T12:34:17.838Z,6.10
2018-08-09T12:36:30.122Z,10.05
2018-08-09T12:38:42.296Z,6.90
2018-08-09T12:40:54.547Z,7.20
2018-08-09T12:43:06.850Z,7.03
2018-08-09T12:45:19.197Z,9.03
2018-08-09T12:47:31.447Z,7.65
2018-08-09T12:49:43.734Z,7.22
2018-08-09T12:51:56.043Z,8.00
2018-08-09T12:54:08.284Z,9.75
2018-08-09T12:56:20.488Z,8.33
2018-08-09T12:58:32.706Z,7.70
2018-08-09T13:00:44.895Z,7.03
2018-08-09T13:02:57.119Z,7.70
2018-08-09T13:05:10.790Z,8.15
2018-08-09T13:07:22.986Z,6.25
2018-08-09T13:09:35.245Z,5.87
2018-08-09T13:11:47.448Z,9.40
2018-08-09T13:13:59.717Z,6.70
2018-08-09T13:16:11.992Z,8.63
2018-08-09T13:18:24.202Z,5.30
2018-08-09T13:20:36.378Z,9.78
2018-08-09T13:22:49.949Z,9.43
2018-08-09T13:25:02.197Z,8.03
2018-08-09T13:27:14.595Z,5.42
2018-08-09T13:29:26.851Z,5.85
2018-08-09T13:31:39.087Z,7.62
2018-08-09T13:33:51.419Z,7.37
2018-08-09T13:36:03.641Z,7.67
2018-08-09T13:38:15.880Z,14.80
2018-08-09T13:40:28.124Z,14.90
2018-08-09T13:42:40.930Z,20.72
2018-08-09T13:44:53.266Z,10.90
2018-08-09T13:47:05.550Z,10.48
2018-08-09T13:49:17.806Z,10.18
2018-08-09T13:51:30.172Z,9.23
2018-08-09T13:53:42.319Z,16.95
2018-08-09T13:55:54.575Z,9.88
2018-08-09T13:58:06.821Z,10.13
2018-08-09T14:00:19.034Z,10.35
2018-08-09T14:02:31.290Z,12.80
2018-08-09T14:04:43.556Z,11.80
2018-08-09T14:06:55.826Z,6.67
2018-08-09T14:09:10.287Z,9.83
2018-08-09T14:11:22.548Z,19.93
2018-08-09T14:13:34.811Z,16.07
2018-08-09T14:15:47.024Z,14.77
2018-08-09T14:17:59.309Z,12.43
2018-08-09T14:20:14.417Z,17.70
2018-08-09T14:22:26.634Z,12.13
2018-08-09T14:24:38.927Z,12.10
2018-08-09T14:26:51.134Z,11.53
2018-08-09T14:29:04.014Z,10.63
2018-08-09T14:31:16.347Z,13.50
2018-08-09T14:33:28.575Z,10.63
2018-08-09T14:35:40.787Z,13.00
2018-08-09T14:37:53.010Z,10.57
2018-08-09T14:40:06.256Z,10.10
2018-08-09T14:42:18.669Z,8.00
2018-08-09T14:44:30.845Z,9.23
2018-08-09T14:46:43.048Z,9.03
2018-08-09T14:48:55.326Z,6.70
2018-08-09T14:51:07.582Z,6.63
2018-08-09T14:53:19.813Z,9.97
2018-08-09T14:55:32.047Z,9.23
2018-08-09T14:57:44.290Z,8.97
2018-08-09T14:59:56.556Z,8.50
2018-08-09T15:02:08.913Z,9.23
2018-08-09T15:04:21.128Z,9.70
2018-08-09T15:06:33.444Z,12.23
2018-08-09T15:08:45.653Z,9.00
2018-08-09T15:10:57.878Z,7.70
2018-08-09T15:13:10.125Z,7.80
2018-08-09T15:15:22.374Z,6.27
2018-08-09T15:17:34.581Z,7.37
2018-08-09T15:19:46.806Z,6.80
2018-08-09T15:21:59.084Z,6.33
2018-08-09T15:24:11.362Z,10.20
2018-08-09T15:26:23.592Z,12.30
2018-08-09T15:28:36.204Z,7.40
2018-08-09T15:30:48.470Z,6.23
2018-08-09T15:33:00.687Z,8.57
2018-08-09T15:35:13.373Z,9.87
2018-08-09T15:37:25.641Z,7.20
2018-08-09T15:39:37.871Z,9.93
2018-08-09T15:41:50.097Z,11.23
2018-08-09T15:44:02.371Z,11.07
2018-08-09T15:46:14.597Z,8.63
2018-08-09T15:48:27.027Z,10.40
2018-08-09T15:50:39.189Z,7.60
2018-08-09T15:52:51.462Z,6.40
2018-08-09T15:55:04.236Z,8.37
2018-08-09T15:57:16.446Z,9.40
2018-08-09T15:59:28.693Z,11.40
2018-08-09T16:01:41.308Z,7.97
2018-08-09T16:03:53.628Z,6.17
2018-08-09T16:06:05.847Z,7.90
2018-08-09T16:08:18.145Z,8.47
2018-08-09T16:10:30.378Z,17.23
2018-08-09T16:12:42.739Z,31.87
2018-08-09T16:14:54.999Z,41.33
2018-08-09T16:17:07.621Z,21.33
2018-08-09T16:19:19.946Z,14.90
2018-08-09T16:21:32.322Z,14.93
2018-08-09T16:23:44.530Z,12.40
2018-08-09T16:25:56.863Z,12.90
2018-08-09T16:28:10.314Z,8.97
2018-08-09T16:30:24.679Z,11.33
2018-08-09T16:32:36.980Z,7.50
2018-08-09T16:34:49.242Z,5.57
2018-08-09T16:37:01.539Z,7.00
2018-08-09T16:39:14.346Z,7.57
2018-08-09T16:41:26.581Z,7.60
2018-08-09T16:43:38.855Z,9.33
2018-08-09T16:45:51.111Z,6.37
2018-08-09T16:48:03.582Z,5.47
2018-08-09T16:50:18.035Z,8.27
2018-08-09T16:52:30.251Z,6.80
2018-08-09T16:54:42.438Z,8.10
2018-08-09T16:56:54.632Z,7.70
2018-08-09T16:59:06.892Z,8.60
2018-08-09T17:01:19.123Z,6.47
2018-08-09T17:03:31.545Z,4.37
2018-08-09T17:05:43.813Z,8.77
2018-08-09T17:07:56.509Z,5.20
2018-08-09T17:10:09.699Z,6.83
2018-08-09T17:12:21.938Z,8.23
2018-08-09T17:14:34.170Z,7.63
2018-08-09T17:16:46.414Z,5.17
2018-08-09T17:18:58.675Z,7.83
2018-08-09T17:21:11.049Z,9.77
2018-08-09T17:23:23.286Z,6.90
2018-08-09T17:25:35.548Z,6.03
2018-08-09T17:27:48.573Z,8.60
2018-08-09T17:30:00.789Z,5.97
2018-08-09T17:32:13.053Z,6.80
2018-08-09T17:34:25.287Z,7.43
2018-08-09T17:36:37.568Z,10.50
2018-08-09T17:38:49.789Z,8.93
2018-08-09T17:41:02.078Z,8.20
2018-08-09T17:43:14.331Z,9.30
2018-08-09T17:45:28.839Z,11.33
2018-08-09T17:47:41.150Z,9.73
2018-08-09T17:49:53.400Z,10.40
2018-08-09T17:52:05.866Z,11.73
2018-08-09T17:54:18.117Z,8.17
2018-08-09T17:56:30.462Z,9.40
2018-08-09T17:58:42.671Z,9.07
2018-08-09T18:00:54.975Z,6.77
2018-08-09T18:03:07.316Z,8.50
2018-08-09T18:05:19.532Z,10.70
2018-08-09T18:07:31.814Z,8.10
2018-08-09T18:09:44.027Z,7.57
2018-08-09T18:11:56.274Z,9.23
2018-08-09T18:14:08.543Z,7.30
2018-08-09T18:16:20.843Z,4.13
2018-08-09T18:18:33.288Z,4.57
2018-08-09T18:20:45.486Z,4.87
2018-08-09T18:22:58.216Z,4.13
2018-08-09T18:25:11.614Z,4.30
2018-08-09T18:27:23.951Z,4.23
2018-08-09T18:29:36.296Z,3.43
2018-08-09T18:31:48.612Z,4.40
2018-08-09T18:34:00.867Z,2.50
2018-08-09T18:36:13.106Z,6.23
2018-08-09T18:38:25.374Z,4.47
2018-08-09T18:40:37.624Z,3.67
2018-08-09T18:42:49.961Z,4.27
2018-08-09T18:45:02.237Z,4.83
2018-08-09T18:47:14.486Z,3.40
2018-08-09T18:49:26.696Z,3.17
2018-08-09T18:51:38.927Z,5.43
2018-08-09T18:53:51.127Z,3.10
2018-08-09T18:56:03.422Z,3.80
2018-08-09T18:58:15.707Z,6.43
2018-08-09T19:00:29.241Z,4.70
2018-08-09T19:02:41.947Z,3.87
2018-08-09T19:04:54.204Z,3.13
2018-08-09T19:07:06.571Z,3.37
2018-08-09T19:09:18.859Z,4.10
2018-08-09T19:11:31.160Z,5.67
2018-08-09T19:13:43.371Z,5.83
2018-08-09T19:15:55.656Z,3.97
2018-08-09T19:18:07.934Z,4.10
2018-08-09T19:20:25.459Z,4.97
2018-08-09T19:22:37.785Z,3.23
2018-08-09T19:24:50.069Z,3.07
2018-08-09T19:27:02.498Z,2.83
2018-08-09T19:29:14.662Z,3.87
2018-08-09T19:31:26.962Z,5.57
2018-08-09T19:33:39.224Z,4.60
2018-08-09T19:35:51.461Z,3.67
2018-08-09T19:38:03.746Z,4.27
2018-08-09T19:40:18.769Z,6.03
2018-08-09T19:42:31.067Z,4.03
2018-08-09T19:44:43.385Z,5.73
2018-08-09T19:46:55.601Z,4.27
2018-08-09T19:49:07.874Z,3.50
2018-08-09T19:51:20.114Z,5.03
2018-08-09T19:53:32.371Z,5.53
2018-08-09T19:55:44.673Z,4.43
2018-08-09T19:57:56.968Z,5.60
2018-08-09T20:00:11.510Z,4.77
2018-08-09T20:02:23.764Z,4.53
2018-08-09T20:04:35.994Z,6.63
2018-08-09T20:06:48.271Z,8.23
2018-08-09T20:09:00.422Z,5.03
2018-08-09T20:11:12.655Z,5.23
2018-08-09T20:13:24.922Z,3.23
2018-08-09T20:15:37.218Z,3.97
2018-08-09T20:17:49.500Z,6.50
2018-08-09T20:20:01.752Z,3.90
2018-08-09T20:22:16.339Z,4.07
2018-08-09T20:24:28.567Z,3.87
2018-08-09T20:26:41.175Z,5.53
2018-08-09T20:28:53.424Z,5.73
2018-08-09T20:31:05.811Z,6.70
2018-08-09T20:33:18.068Z,6.07
2018-08-09T20:35:30.432Z,5.70
2018-08-09T20:37:44.571Z,5.10
2018-08-09T20:39:56.887Z,5.20
2018-08-09T20:42:09.164Z,5.23
2018-08-09T20:44:21.458Z,5.07
2018-08-09T20:46:33.745Z,5.23
2018-08-09T20:48:45.991Z,7.90
2018-08-09T20:50:58.266Z,5.13
2018-08-09T20:53:10.523Z,5.20
2018-08-09T20:55:23.071Z,3.43
2018-08-09T20:57:35.428Z,3.73
2018-08-09T20:59:47.732Z,3.90
2018-08-09T21:02:00.063Z,3.70
2018-08-09T21:04:12.271Z,4.37
2018-08-09T21:06:24.531Z,5.30
2018-08-09T21:08:36.773Z,5.10
2018-08-09T21:10:49.092Z,3.93
2018-08-09T21:13:01.836Z,5.57
2018-08-09T21:15:14.491Z,5.20
2018-08-09T21:17:26.611Z,6.70
2018-08-09T21:19:38.879Z,8.83
2018-08-09T21:21:51.106Z,9.80
2018-08-09T21:24:03.494Z,5.80
2018-08-09T21:26:15.758Z,7.63
2018-08-09T21:28:28.001Z,8.37
2018-08-09T21:30:40.242Z,5.27
2018-08-09T21:32:52.573Z,5.47
2018-08-09T21:35:05.093Z,8.17
2018-08-09T21:37:17.282Z,6.00
2018-08-09T21:39:29.549Z,4.90
2018-08-09T21:41:41.784Z,5.27
2018-08-09T21:43:54.038Z,4.37
2018-08-09T21:46:06.250Z,4.90
2018-08-09T21:48:18.498Z,4.13
2018-08-09T21:50:30.719Z,6.53
2018-08-09T21:52:43.026Z,11.63
2018-08-09T21:54:55.286Z,8.67
2018-08-09T21:57:07.542Z,4.80
2018-08-09T21:59:19.826Z,5.33
2018-08-09T22:01:32.086Z,4.97
2018-08-09T22:03:44.350Z,6.83
2018-08-09T22:06:02.218Z,8.03
2018-08-09T22:08:20.065Z,4.93
2018-08-09T22:12:42.371Z,6.07
2018-08-09T22:15:00.231Z,4.90
2018-08-09T22:17:18.202Z,4.87
2018-08-09T22:19:36.070Z,6.33
2018-08-09T22:21:53.996Z,5.67
2018-08-09T22:24:06.288Z,6.43
2018-08-09T22:26:18.608Z,5.67
2018-08-09T22:28:31.141Z,7.33
2018-08-09T22:30:43.342Z,4.97
2018-08-09T22:32:55.578Z,4.37
2018-08-09T22:35:07.771Z,4.80
2018-08-09T22:37:20.549Z,4.77
2018-08-09T22:39:32.800Z,4.70
2018-08-09T22:41:45.001Z,6.80
2018-08-09T22:43:57.212Z,5.40
2018-08-09T22:46:09.467Z,4.33
2018-08-09T22:48:21.705Z,4.63
2018-08-09T22:50:33.942Z,4.80
2018-08-09T22:52:46.148Z,3.43
2018-08-09T22:54:58.391Z,4.10
2018-08-09T22:57:10.561Z,2.60
2018-08-09T22:59:22.757Z,4.33
2018-08-09T23:01:34.922Z,2.70
2018-08-09T23:03:47.208Z,5.27
2018-08-09T23:05:59.428Z,4.20
2018-08-09T23:08:13.062Z,3.17
2018-08-09T23:10:25.321Z,2.03
2018-08-09T23:12:37.574Z,2.43
2018-08-09T23:14:49.759Z,2.13
2018-08-09T23:17:01.988Z,5.90
2018-08-09T23:19:14.266Z,3.40
2018-08-09T23:21:26.645Z,3.03
2018-08-09T23:23:38.927Z,2.73
2018-08-09T23:25:51.158Z,3.60
2018-08-09T23:28:03.398Z,3.27
2018-08-09T23:30:15.642Z,2.63
2018-08-09T23:32:27.967Z,3.20
2018-08-09T23:34:40.485Z,3.03
2018-08-09T23:36:52.696Z,2.33
2018-08-09T23:39:07.998Z,2.13
2018-08-09T23:41:20.282Z,2.07
2018-08-09T23:43:32.462Z,2.13
2018-08-09T23:45:44.648Z,2.37
2018-08-09T23:47:57.085Z,3.57
2018-08-09T23:50:10.887Z,2.77
2018-08-09T23:52:23.091Z,1.73
2018-08-09T23:54:35.303Z,1.30
2018-08-09T23:56:47.496Z,1.30
2018-08-09T23:58:59.788Z,1.10
